createdAt,value
2019-04-29T00:00:56.903Z,98.63
2019-04-29T00:03:28.999Z,99.22
2019-04-29T00:05:59.568Z,99.08
2019-04-29T00:08:30.355Z,99.94
2019-04-29T00:11:01.077Z,99.55
2019-04-29T00:13:34.054Z,100.00
2019-04-29T00:16:23.415Z,100.00
2019-04-29T00:19:13.065Z,100.00
2019-04-29T00:21:43.643Z,100.00
2019-04-29T00:24:14.152Z,100.00
2019-04-29T00:26:44.680Z,100.00
2019-04-29T00:29:15.087Z,100.00
2019-04-29T00:31:45.618Z,100.00
2019-04-29T00:34:16.077Z,100.00
2019-04-29T00:36:54.029Z,100.00
2019-04-29T00:39:43.419Z,100.00
2019-04-29T00:42:31.761Z,100.00
2019-04-29T00:45:02.302Z,100.00
2019-04-29T00:47:32.775Z,100.00
2019-04-29T00:50:03.202Z,100.00
2019-04-29T00:52:34.108Z,100.00
2019-04-29T00:55:09.475Z,100.00
2019-04-29T00:57:42.658Z,100.00
2019-04-29T01:00:15.243Z,100.00
2019-04-29T01:02:48.741Z,100.00
2019-04-29T01:05:22.046Z,100.00
2019-04-29T01:07:52.524Z,100.00
2019-04-29T01:10:22.961Z,100.00
2019-04-29T01:12:53.422Z,100.00
2019-04-29T01:15:24.111Z,100.00
2019-04-29T01:17:54.944Z,100.00
2019-04-29T01:20:25.440Z,100.00
2019-04-29T01:22:55.933Z,100.00
2019-04-29T01:25:27.760Z,100.00
2019-04-29T01:28:08.391Z,100.00
2019-04-29T01:31:17.781Z,100.00
2019-04-29T01:33:50.104Z,100.00
2019-04-29T01:36:45.509Z,100.00
2019-04-29T01:39:15.986Z,99.90
2019-04-29T01:42:04.552Z,99.66
2019-04-29T01:44:36.640Z,99.50
2019-04-29T01:47:07.119Z,99.70
2019-04-29T01:49:37.581Z,99.50
2019-04-29T01:52:08.056Z,99.49
2019-04-29T01:54:38.789Z,99.50
2019-04-29T01:57:09.736Z,99.68
2019-04-29T01:59:40.231Z,99.97
2019-04-29T02:02:10.726Z,100.00
2019-04-29T02:04:41.171Z,100.00
2019-04-29T02:07:15.004Z,100.00
2019-04-29T02:10:01.189Z,100.00
2019-04-29T02:12:31.698Z,100.00
2019-04-29T02:15:02.127Z,100.00
2019-04-29T02:17:32.765Z,99.85
2019-04-29T02:20:03.239Z,99.87
2019-04-29T02:22:45.478Z,99.82
2019-04-29T02:25:27.556Z,100.00
2019-04-29T02:27:58.098Z,100.00
2019-04-29T02:30:39.925Z,100.00
2019-04-29T02:33:10.421Z,100.00
2019-04-29T02:35:41.089Z,100.00
2019-04-29T02:38:26.456Z,100.00
2019-04-29T02:41:12.722Z,100.00
2019-04-29T02:43:45.004Z,100.00
2019-04-29T02:46:15.778Z,100.00
2019-04-29T02:48:46.248Z,100.00
2019-04-29T02:51:35.960Z,100.00
2019-04-29T02:54:06.480Z,100.00
2019-04-29T02:56:37.634Z,100.00
2019-04-29T02:59:09.501Z,100.00
2019-04-29T03:02:01.568Z,100.00
2019-04-29T03:04:37.077Z,100.00
2019-04-29T03:07:07.524Z,100.00
2019-04-29T03:09:45.786Z,100.00
2019-04-29T03:12:16.267Z,100.00
2019-04-29T03:14:46.725Z,100.00
2019-04-29T03:17:18.947Z,100.00
2019-04-29T03:20:07.142Z,100.00
2019-04-29T03:22:38.189Z,100.00
2019-04-29T03:25:08.707Z,100.00
2019-04-29T03:27:40.386Z,100.00
2019-04-29T03:30:13.281Z,100.00
2019-04-29T03:32:50.187Z,100.00
2019-04-29T03:35:20.635Z,100.00
2019-04-29T03:37:51.101Z,100.00
2019-04-29T03:40:21.585Z,100.00
2019-04-29T03:42:52.083Z,100.00
2019-04-29T03:45:22.618Z,100.00
2019-04-29T03:47:53.444Z,100.00
2019-04-29T03:50:24.729Z,100.00
2019-04-29T03:52:55.228Z,100.00
2019-04-29T03:55:38.894Z,100.00
2019-04-29T03:57:58.132Z,100.00
2019-04-29T04:00:36.545Z,100.00
2019-04-29T04:03:16.853Z,100.00
2019-04-29T04:06:15.582Z,100.00
2019-04-29T04:09:06.320Z,100.00
2019-04-29T04:11:32.911Z,100.00
2019-04-29T04:14:08.274Z,100.00
2019-04-29T04:17:00.374Z,100.00
2019-04-29T04:19:32.782Z,100.00
2019-04-29T04:22:06.042Z,100.00
2019-04-29T04:24:37.711Z,100.00
2019-04-29T04:27:10.917Z,100.00
2019-04-29T04:29:41.820Z,100.00
2019-04-29T04:32:12.311Z,100.00
2019-04-29T04:34:42.835Z,100.00
2019-04-29T04:37:14.245Z,100.00
2019-04-29T04:39:44.995Z,100.00
2019-04-29T04:42:16.153Z,100.00
2019-04-29T04:44:50.831Z,100.00
2019-04-29T04:47:21.344Z,100.00
2019-04-29T04:49:51.803Z,100.00
2019-04-29T04:52:22.339Z,100.00
2019-04-29T04:54:54.556Z,100.00
2019-04-29T04:57:28.366Z,100.00
2019-04-29T04:59:59.245Z,100.00
2019-04-29T05:02:29.931Z,100.00
2019-04-29T05:05:00.491Z,100.00
2019-04-29T05:07:30.945Z,100.00
2019-04-29T05:10:02.866Z,100.00
2019-04-29T05:12:33.344Z,100.00
2019-04-29T05:15:04.210Z,100.00
2019-04-29T05:17:34.687Z,100.00
2019-04-29T05:20:05.370Z,100.00
2019-04-29T05:22:35.929Z,100.00
2019-04-29T05:25:06.678Z,100.00
2019-04-29T05:27:37.121Z,100.00
2019-04-29T05:30:07.631Z,100.00
2019-04-29T05:32:38.117Z,100.00
2019-04-29T05:35:11.598Z,100.00
2019-04-29T05:37:50.886Z,100.00
2019-04-29T05:40:45.420Z,100.00
2019-04-29T05:43:18.417Z,100.00
2019-04-29T05:46:07.886Z,100.00
2019-04-29T05:48:38.743Z,100.00
2019-04-29T05:51:29.806Z,100.00
2019-04-29T05:54:01.248Z,99.92
2019-04-29T05:56:34.071Z,99.59
2019-04-29T05:59:08.362Z,99.16
2019-04-29T06:01:36.717Z,98.84
2019-04-29T06:04:07.523Z,98.49
2019-04-29T06:06:38.221Z,99.11
2019-04-29T06:09:11.509Z,98.48
2019-04-29T06:11:41.301Z,98.75
2019-04-29T06:14:11.793Z,98.56
2019-04-29T06:16:42.699Z,98.29
2019-04-29T06:19:13.197Z,97.29
2019-04-29T06:21:43.850Z,97.87
2019-04-29T06:24:14.389Z,97.35
2019-04-29T06:26:55.177Z,97.81
2019-04-29T06:29:24.025Z,97.25
2019-04-29T06:31:55.179Z,96.76
2019-04-29T06:34:25.865Z,96.89
2019-04-29T06:36:56.858Z,97.27
2019-04-29T06:39:27.910Z,97.05
2019-04-29T06:41:59.104Z,96.92
2019-04-29T06:44:50.493Z,96.90
2019-04-29T06:47:21.303Z,96.71
2019-04-29T06:49:54.207Z,96.54
2019-04-29T06:52:32.954Z,96.23
2019-04-29T06:55:00.116Z,95.69
2019-04-29T06:57:30.907Z,96.66
2019-04-29T07:00:02.474Z,97.03
2019-04-29T07:02:34.793Z,95.58
2019-04-29T07:05:05.787Z,95.10
2019-04-29T07:07:36.316Z,95.05
2019-04-29T07:10:07.323Z,95.56
2019-04-29T07:12:38.364Z,94.44
2019-04-29T07:15:16.087Z,94.39
2019-04-29T07:17:53.115Z,94.22
2019-04-29T07:20:25.079Z,94.55
2019-04-29T07:22:56.440Z,94.41
2019-04-29T07:25:32.756Z,93.02
2019-04-29T07:28:03.226Z,93.45
2019-04-29T07:30:39.245Z,92.74
2019-04-29T07:33:07.453Z,93.13
2019-04-29T07:35:42.864Z,93.51
2019-04-29T07:38:22.786Z,93.46
2019-04-29T07:40:53.318Z,93.59
2019-04-29T07:43:30.489Z,92.29
2019-04-29T07:46:28.053Z,91.98
2019-04-29T07:49:01.731Z,93.01
2019-04-29T07:51:39.497Z,92.44
2019-04-29T07:54:04.800Z,92.70
2019-04-29T07:56:37.787Z,92.24
2019-04-29T07:59:11.206Z,92.25
2019-04-29T08:01:41.068Z,92.83
2019-04-29T08:04:11.760Z,92.38
2019-04-29T08:06:45.300Z,92.84
2019-04-29T08:09:21.354Z,94.59
2019-04-29T08:11:55.044Z,95.55
2019-04-29T08:14:25.528Z,97.17
2019-04-29T08:16:56.212Z,97.31
2019-04-29T08:19:29.419Z,98.21
2019-04-29T08:21:59.778Z,99.19
2019-04-29T08:24:33.347Z,99.78
2019-04-29T08:27:05.419Z,100.00
2019-04-29T08:29:37.642Z,100.00
2019-04-29T08:32:08.164Z,100.00
2019-04-29T08:34:44.032Z,100.00
2019-04-29T08:37:14.764Z,100.00
2019-04-29T08:40:03.466Z,100.00
2019-04-29T08:42:24.800Z,100.00
2019-04-29T08:45:27.577Z,100.00
2019-04-29T08:47:58.376Z,100.00
2019-04-29T08:50:28.973Z,100.00
2019-04-29T08:53:01.623Z,100.00
2019-04-29T08:55:36.178Z,100.00
2019-04-29T08:58:06.881Z,100.00
2019-04-29T09:00:38.577Z,100.00
2019-04-29T09:03:09.086Z,100.00
2019-04-29T09:05:41.748Z,100.00
2019-04-29T09:08:13.500Z,100.00
2019-04-29T09:10:44.741Z,100.00
2019-04-29T09:13:18.680Z,100.00
2019-04-29T09:15:49.112Z,100.00
2019-04-29T09:18:20.193Z,100.00
2019-04-29T09:20:50.654Z,100.00
2019-04-29T09:23:24.434Z,100.00
2019-04-29T09:26:19.846Z,100.00
2019-04-29T09:28:50.319Z,100.00
2019-04-29T09:31:22.398Z,100.00
2019-04-29T09:34:05.985Z,100.00
2019-04-29T09:36:28.929Z,100.00
2019-04-29T09:38:59.537Z,100.00
2019-04-29T09:41:45.079Z,100.00
2019-04-29T09:44:39.824Z,100.00
2019-04-29T09:47:10.283Z,100.00
2019-04-29T09:49:54.499Z,100.00
2019-04-29T09:52:24.990Z,100.00
2019-04-29T09:54:59.570Z,100.00
2019-04-29T09:57:30.338Z,100.00
2019-04-29T10:00:18.473Z,100.00
2019-04-29T10:03:02.588Z,100.00
2019-04-29T10:05:46.884Z,100.00
2019-04-29T10:08:19.093Z,100.00
2019-04-29T10:10:52.867Z,100.00
2019-04-29T10:13:24.894Z,100.00
2019-04-29T10:16:20.302Z,100.00
2019-04-29T10:19:05.191Z,100.00
2019-04-29T10:21:33.803Z,100.00
2019-04-29T10:24:05.327Z,100.00
2019-04-29T10:26:37.197Z,100.00
2019-04-29T10:29:13.752Z,100.00
2019-04-29T10:31:44.818Z,100.00
2019-04-29T10:34:16.051Z,100.00
2019-04-29T10:36:52.319Z,100.00
2019-04-29T10:39:38.507Z,100.00
2019-04-29T10:42:10.026Z,100.00
2019-04-29T10:44:49.112Z,100.00
2019-04-29T10:47:38.168Z,100.00
2019-04-29T10:50:23.718Z,100.00
2019-04-29T10:53:18.274Z,100.00
2019-04-29T10:55:51.353Z,100.00
2019-04-29T10:58:28.180Z,100.00
2019-04-29T11:02:01.054Z,100.00
2019-04-29T11:04:31.765Z,100.00
2019-04-29T11:07:23.075Z,100.00
2019-04-29T11:10:09.113Z,100.00
2019-04-29T11:12:41.839Z,100.00
2019-04-29T11:15:15.487Z,100.00
2019-04-29T11:17:47.943Z,100.00
2019-04-29T11:20:21.239Z,100.00
2019-04-29T11:23:04.693Z,100.00
2019-04-29T11:25:56.767Z,100.00
2019-04-29T11:28:28.157Z,100.00
2019-04-29T11:31:00.357Z,100.00
2019-04-29T11:33:54.847Z,100.00
2019-04-29T11:36:25.935Z,100.00
2019-04-29T11:39:04.366Z,100.00
2019-04-29T11:41:39.382Z,100.00
2019-04-29T11:44:12.749Z,100.00
2019-04-29T11:46:52.662Z,100.00
2019-04-29T11:49:37.115Z,100.00
2019-04-29T11:52:11.695Z,100.00
2019-04-29T11:54:58.702Z,100.00
2019-04-29T11:57:44.305Z,100.00
2019-04-29T12:00:51.975Z,100.00
2019-04-29T12:03:24.188Z,100.00
2019-04-29T12:06:01.101Z,100.00
2019-04-29T12:08:32.087Z,100.00
2019-04-29T12:11:07.543Z,100.00
2019-04-29T12:14:12.701Z,100.00
2019-04-29T12:17:07.424Z,100.00
2019-04-29T12:19:39.101Z,100.00
2019-04-29T12:22:15.130Z,100.00
2019-04-29T12:24:44.903Z,100.00
2019-04-29T12:27:19.854Z,100.00
2019-04-29T12:29:54.270Z,100.00
2019-04-29T12:32:43.642Z,100.00
2019-04-29T12:35:21.541Z,100.00
2019-04-29T12:38:05.985Z,100.00
2019-04-29T12:41:20.432Z,100.00
2019-04-29T12:43:58.967Z,100.00
2019-04-29T12:46:43.861Z,100.00
2019-04-29T12:49:15.879Z,100.00
2019-04-29T12:51:48.380Z,100.00
2019-04-29T12:54:23.102Z,100.00
2019-04-29T12:56:53.855Z,100.00
2019-04-29T12:59:39.229Z,100.00
2019-04-29T13:02:24.049Z,100.00
2019-04-29T13:05:20.377Z,100.00
2019-04-29T13:08:15.532Z,100.00
2019-04-29T13:10:53.508Z,100.00
2019-04-29T13:13:24.087Z,100.00
2019-04-29T13:16:12.076Z,100.00
2019-04-29T13:19:10.623Z,100.00
2019-04-29T13:21:35.000Z,100.00
2019-04-29T13:24:17.992Z,100.00
2019-04-29T13:26:42.181Z,100.00
2019-04-29T13:29:27.765Z,100.00
2019-04-29T13:32:04.081Z,100.00
2019-04-29T13:34:56.033Z,100.00
2019-04-29T13:37:27.653Z,100.00
2019-04-29T13:40:13.257Z,100.00
2019-04-29T13:42:48.524Z,100.00
2019-04-29T13:45:26.211Z,100.00
2019-04-29T13:48:19.333Z,100.00
2019-04-29T13:51:01.566Z,100.00
2019-04-29T13:53:32.868Z,100.00
2019-04-29T13:56:11.519Z,100.00
2019-04-29T13:58:38.297Z,100.00
2019-04-29T14:01:33.020Z,100.00
2019-04-29T14:04:24.783Z,100.00
2019-04-29T14:06:57.238Z,100.00
2019-04-29T14:09:28.304Z,100.00
2019-04-29T14:12:46.038Z,100.00
2019-04-29T14:14:37.663Z,100.00
2019-04-29T14:17:25.468Z,100.00
2019-04-29T14:19:43.895Z,100.00
2019-04-29T14:22:22.255Z,100.00
2019-04-29T14:24:52.270Z,100.00
2019-04-29T14:27:27.285Z,100.00
2019-04-29T14:30:02.914Z,100.00
2019-04-29T14:32:37.913Z,100.00
2019-04-29T14:35:43.683Z,100.00
2019-04-29T14:38:14.343Z,100.00
2019-04-29T14:40:45.376Z,100.00
2019-04-29T14:43:31.418Z,100.00
2019-04-29T14:46:20.889Z,100.00
2019-04-29T14:49:04.638Z,100.00
2019-04-29T14:51:36.893Z,100.00
2019-04-29T14:54:10.202Z,100.00
2019-04-29T14:56:48.532Z,100.00
2019-04-29T14:59:14.547Z,100.00
2019-04-29T15:02:07.220Z,100.00
2019-04-29T15:04:49.143Z,100.00
2019-04-29T15:07:24.172Z,100.00
2019-04-29T15:09:58.260Z,100.00
2019-04-29T15:12:52.099Z,100.00
2019-04-29T15:15:49.112Z,100.00
2019-04-29T15:18:48.006Z,100.00
2019-04-29T15:21:33.643Z,100.00
2019-04-29T15:24:05.204Z,100.00
2019-04-29T15:26:35.893Z,100.00
2019-04-29T15:29:07.027Z,100.00
2019-04-29T15:31:37.773Z,100.00
2019-04-29T15:34:09.443Z,100.00
2019-04-29T15:36:42.059Z,100.00
2019-04-29T15:39:27.574Z,100.00
2019-04-29T15:42:01.925Z,100.00
2019-04-29T15:44:31.430Z,100.00
2019-04-29T15:47:06.103Z,100.00
2019-04-29T15:49:50.236Z,100.00
2019-04-29T15:52:27.753Z,100.00
2019-04-29T15:55:01.751Z,100.00
2019-04-29T15:57:49.378Z,100.00
2019-04-29T16:00:22.191Z,100.00
2019-04-29T16:02:53.169Z,100.00
2019-04-29T16:08:46.317Z,100.00
2019-04-29T16:11:37.554Z,100.00
2019-04-29T16:14:17.182Z,100.00
2019-04-29T16:16:49.297Z,100.00
2019-04-29T16:19:28.609Z,100.00
2019-04-29T16:22:13.069Z,100.00
2019-04-29T16:24:43.276Z,100.00
2019-04-29T16:27:15.312Z,100.00
2019-04-29T16:29:51.526Z,100.00
2019-04-29T16:32:33.525Z,100.00
2019-04-29T16:35:04.063Z,100.00
2019-04-29T16:37:48.097Z,100.00
2019-04-29T16:40:22.363Z,100.00
2019-04-29T16:43:01.683Z,100.00
2019-04-29T16:45:51.375Z,100.00
2019-04-29T16:48:17.293Z,100.00
2019-04-29T16:50:49.229Z,100.00
2019-04-29T16:53:22.326Z,100.00
2019-04-29T16:55:53.194Z,100.00
2019-04-29T16:58:24.895Z,100.00
2019-04-29T17:01:19.171Z,100.00
2019-04-29T17:03:51.422Z,100.00
2019-04-29T17:06:23.743Z,100.00
2019-04-29T17:09:10.735Z,100.00
2019-04-29T17:11:50.510Z,100.00
2019-04-29T17:14:17.739Z,100.00
2019-04-29T17:16:50.015Z,100.00
2019-04-29T17:19:20.831Z,100.00
2019-04-29T17:21:53.421Z,100.00
2019-04-29T17:24:24.478Z,100.00
2019-04-29T17:27:23.148Z,100.00
2019-04-29T17:30:20.411Z,100.00
2019-04-29T17:33:01.627Z,100.00
2019-04-29T17:35:13.889Z,100.00
2019-04-29T17:35:38.231Z,100.00
2019-04-29T17:38:08.682Z,100.00
2019-04-29T17:40:51.138Z,100.00
2019-04-29T17:43:47.344Z,100.00
2019-04-29T17:46:42.189Z,100.00
2019-04-29T17:49:22.200Z,100.00
2019-04-29T17:52:02.924Z,100.00
2019-04-29T17:54:41.922Z,100.00
2019-04-29T17:57:58.394Z,100.00
2019-04-29T18:00:56.243Z,100.00
2019-04-29T18:03:55.880Z,100.00
2019-04-29T18:06:38.430Z,100.00
2019-04-29T18:09:33.558Z,100.00
2019-04-29T18:12:24.927Z,100.00
2019-04-29T18:15:03.698Z,100.00
2019-04-29T18:17:37.269Z,100.00
2019-04-29T18:23:27.785Z,100.00
2019-04-29T18:26:04.750Z,100.00
2019-04-29T18:28:41.773Z,100.00
2019-04-29T18:31:14.254Z,100.00
2019-04-29T18:33:47.640Z,100.00
2019-04-29T18:36:45.824Z,100.00
2019-04-29T18:39:25.047Z,100.00
2019-04-29T18:41:58.728Z,100.00
2019-04-29T18:44:40.578Z,100.00
2019-04-29T18:47:20.643Z,100.00
2019-04-29T18:49:48.426Z,100.00
2019-04-29T18:52:26.552Z,100.00
2019-04-29T18:55:05.768Z,100.00
2019-04-29T18:57:38.621Z,100.00
2019-04-29T19:00:19.327Z,100.00
2019-04-29T19:02:56.909Z,100.00
2019-04-29T19:05:32.596Z,100.00
2019-04-29T19:08:13.977Z,100.00
2019-04-29T19:11:05.074Z,100.00
2019-04-29T19:13:43.491Z,100.00
2019-04-29T19:16:21.545Z,100.00
2019-04-29T19:19:01.682Z,100.00
2019-04-29T19:21:36.255Z,100.00
2019-04-29T19:24:11.344Z,100.00
2019-04-29T19:26:42.252Z,100.00
2019-04-29T19:29:18.690Z,100.00
2019-04-29T19:31:52.080Z,100.00
2019-04-29T19:34:42.878Z,100.00
2019-04-29T19:37:15.856Z,100.00
2019-04-29T19:39:52.540Z,100.00
2019-04-29T19:42:30.933Z,100.00
2019-04-29T19:44:59.685Z,100.00
2019-04-29T19:47:36.149Z,100.00
2019-04-29T19:50:10.496Z,100.00
2019-04-29T19:52:46.451Z,100.00
2019-04-29T19:55:33.216Z,100.00
2019-04-29T19:58:15.020Z,100.00
2019-04-29T20:01:10.811Z,100.00
2019-04-29T20:03:37.795Z,100.00
2019-04-29T20:06:21.451Z,100.00
2019-04-29T20:08:57.019Z,100.00
2019-04-29T20:11:32.683Z,100.00
2019-04-29T20:14:04.952Z,100.00
2019-04-29T20:17:04.299Z,100.00
2019-04-29T20:19:38.406Z,100.00
2019-04-29T20:22:13.222Z,100.00
2019-04-29T20:24:58.670Z,100.00
2019-04-29T20:27:30.900Z,100.00
2019-04-29T20:30:15.937Z,100.00
2019-04-29T20:32:40.338Z,100.00
2019-04-29T20:35:19.051Z,100.00
2019-04-29T20:37:56.644Z,100.00
2019-04-29T20:40:35.200Z,100.00
2019-04-29T20:43:07.820Z,100.00
2019-04-29T20:45:42.227Z,100.00
2019-04-29T20:48:19.471Z,100.00
2019-04-29T20:50:52.774Z,100.00
2019-04-29T20:53:43.004Z,100.00
2019-04-29T20:56:25.316Z,100.00
2019-04-29T20:59:01.872Z,100.00
2019-04-29T21:01:43.161Z,100.00
2019-04-29T21:04:12.659Z,100.00
2019-04-29T21:06:59.087Z,100.00
2019-04-29T21:09:22.192Z,100.00
2019-04-29T21:12:08.531Z,100.00
2019-04-29T21:14:47.761Z,100.00
2019-04-29T21:17:31.246Z,100.00
2019-04-29T21:19:55.164Z,100.00
2019-04-29T21:22:26.040Z,100.00
2019-04-29T21:24:56.589Z,100.00
2019-04-29T21:27:27.215Z,100.00
2019-04-29T21:29:57.636Z,100.00
2019-04-29T21:32:30.559Z,100.00
2019-04-29T21:35:15.127Z,100.00
2019-04-29T21:38:08.286Z,100.00
2019-04-29T21:40:43.905Z,100.00
2019-04-29T21:43:21.989Z,100.00
2019-04-29T21:45:53.012Z,100.00
2019-04-29T21:48:32.948Z,100.00
2019-04-29T21:50:56.907Z,100.00
2019-04-29T21:53:31.686Z,100.00
2019-04-29T21:56:06.270Z,100.00
2019-04-29T21:58:35.314Z,100.00
2019-04-29T22:01:15.231Z,100.00
2019-04-29T22:03:48.011Z,100.00
2019-04-29T22:06:24.847Z,100.00
2019-04-29T22:09:01.048Z,100.00
2019-04-29T22:11:28.133Z,100.00
2019-04-29T22:13:58.588Z,100.00
2019-04-29T22:16:32.174Z,100.00
2019-04-29T22:19:26.053Z,100.00
2019-04-29T22:21:59.771Z,100.00
2019-04-29T22:24:27.694Z,100.00
2019-04-29T22:27:04.109Z,100.00
2019-04-29T22:29:37.345Z,100.00
2019-04-29T22:32:14.474Z,100.00
2019-04-29T22:34:42.228Z,100.00
2019-04-29T22:37:12.927Z,100.00
2019-04-29T22:39:43.397Z,100.00
2019-04-29T22:42:45.969Z,100.00
2019-04-29T22:45:17.278Z,100.00
2019-04-29T22:47:47.697Z,100.00
2019-04-29T22:50:18.181Z,100.00
2019-04-29T22:52:48.605Z,100.00
2019-04-29T22:55:19.074Z,100.00
2019-04-29T22:57:49.889Z,100.00
2019-04-29T23:00:27.918Z,100.00
2019-04-29T23:02:57.819Z,100.00
2019-04-29T23:05:27.957Z,100.00
2019-04-29T23:08:00.248Z,100.00
2019-04-29T23:10:32.355Z,100.00
2019-04-29T23:13:02.760Z,100.00
2019-04-29T23:15:35.529Z,100.00
2019-04-29T23:18:06.586Z,100.00
2019-04-29T23:21:05.443Z,100.00
2019-04-29T23:23:41.129Z,100.00
2019-04-29T23:26:11.558Z,100.00
2019-04-29T23:28:42.005Z,100.00
2019-04-29T23:31:12.416Z,100.00
2019-04-29T23:33:42.865Z,100.00
2019-04-29T23:36:15.799Z,100.00
2019-04-29T23:38:46.271Z,100.00
2019-04-29T23:41:19.079Z,100.00
2019-04-29T23:43:52.524Z,100.00
2019-04-29T23:46:22.990Z,100.00
2019-04-29T23:48:56.500Z,100.00
2019-04-29T23:51:34.425Z,100.00
2019-04-29T23:54:07.525Z,100.00
2019-04-29T23:56:42.738Z,100.00
2019-04-29T23:59:18.908Z,100.00
